createdAt,value
2023-08-07T00:02:05.185Z,2.58
2023-08-07T00:04:32.213Z,1.73
2023-08-07T00:06:59.182Z,1.77
2023-08-07T00:09:26.400Z,2.38
2023-08-07T00:11:53.545Z,2.00
2023-08-07T00:14:20.972Z,1.73
2023-08-07T00:16:47.825Z,2.05
2023-08-07T00:19:14.992Z,2.20
2023-08-07T00:21:43.070Z,2.20
2023-08-07T00:24:10.125Z,2.40
2023-08-07T00:26:37.265Z,2.03
2023-08-07T00:29:04.556Z,2.50
2023-08-07T00:31:32.582Z,2.22
2023-08-07T00:34:00.779Z,2.45
2023-08-07T00:36:30.082Z,2.45
2023-08-07T00:38:57.244Z,2.22
2023-08-07T00:41:24.513Z,2.50
2023-08-07T00:43:51.570Z,1.83
2023-08-07T00:46:19.198Z,2.33
2023-08-07T00:48:47.082Z,2.70
2023-08-07T00:51:14.199Z,2.67
2023-08-07T00:53:41.687Z,2.42
2023-08-07T00:56:09.044Z,2.40
2023-08-07T00:58:37.464Z,2.53
2023-08-07T01:01:04.635Z,2.03
2023-08-07T01:03:31.854Z,2.97
2023-08-07T01:05:58.816Z,2.55
2023-08-07T01:08:26.798Z,2.15
2023-08-07T01:10:58.294Z,2.58
2023-08-07T01:13:54.142Z,2.97
2023-08-07T01:16:38.974Z,2.20
2023-08-07T01:19:14.952Z,2.63
2023-08-07T01:21:49.122Z,2.53
2023-08-07T01:24:16.117Z,2.60
2023-08-07T01:26:46.846Z,2.60
2023-08-07T01:29:24.182Z,2.63
2023-08-07T01:31:54.581Z,2.75
2023-08-07T01:34:22.750Z,2.53
2023-08-07T01:36:51.346Z,2.63
2023-08-07T01:39:20.142Z,3.08
2023-08-07T01:41:48.041Z,2.90
2023-08-07T01:44:15.677Z,2.95
2023-08-07T01:46:42.613Z,2.30
2023-08-07T01:49:09.862Z,2.50
2023-08-07T01:51:37.079Z,2.70
2023-08-07T01:54:04.222Z,2.45
2023-08-07T01:56:31.452Z,1.90
2023-08-07T01:58:58.588Z,2.70
2023-08-07T02:01:25.547Z,2.38
2023-08-07T02:03:52.612Z,2.35
2023-08-07T02:06:19.616Z,2.60
2023-08-07T02:08:46.537Z,2.90
2023-08-07T02:11:13.550Z,2.22
2023-08-07T02:13:40.575Z,1.90
2023-08-07T02:16:07.544Z,3.05
2023-08-07T02:18:34.735Z,2.22
2023-08-07T02:21:01.901Z,2.42
2023-08-07T02:23:30.114Z,2.60
2023-08-07T02:25:57.041Z,2.45
2023-08-07T02:28:24.015Z,2.70
2023-08-07T02:30:52.315Z,2.22
2023-08-07T02:33:20.008Z,2.72
2023-08-07T02:35:47.054Z,2.25
2023-08-07T02:38:14.078Z,2.40
2023-08-07T02:40:40.947Z,2.92
2023-08-07T02:43:08.575Z,2.70
2023-08-07T02:45:37.571Z,3.03
2023-08-07T02:48:04.934Z,2.42
2023-08-07T02:50:34.005Z,2.75
2023-08-07T02:53:02.242Z,2.40
2023-08-07T02:55:29.408Z,2.72
2023-08-07T02:57:56.442Z,2.22
2023-08-07T03:00:24.425Z,2.53
2023-08-07T03:02:51.847Z,2.22
2023-08-07T03:05:18.937Z,2.40
2023-08-07T03:07:46.022Z,2.42
2023-08-07T03:10:12.941Z,2.35
2023-08-07T03:12:40.240Z,2.38
2023-08-07T03:15:07.613Z,2.75
2023-08-07T03:17:34.894Z,2.92
2023-08-07T03:20:02.048Z,2.38
2023-08-07T03:22:29.064Z,2.08
2023-08-07T03:24:56.029Z,2.88
2023-08-07T03:27:23.042Z,2.78
2023-08-07T03:29:50.280Z,3.20
2023-08-07T03:32:18.772Z,2.80
2023-08-07T03:34:46.410Z,2.85
2023-08-07T03:37:15.033Z,2.30
2023-08-07T03:39:41.996Z,2.95
2023-08-07T03:42:09.171Z,2.58
2023-08-07T03:44:36.253Z,2.80
2023-08-07T03:47:03.710Z,2.15
2023-08-07T03:49:30.761Z,2.88
2023-08-07T03:52:00.153Z,2.70
2023-08-07T03:54:27.617Z,2.85
2023-08-07T03:56:54.916Z,2.63
2023-08-07T03:59:22.033Z,2.97
2023-08-07T04:01:48.925Z,2.92
2023-08-07T04:04:16.075Z,2.78
2023-08-07T04:06:44.688Z,3.10
2023-08-07T04:09:11.695Z,2.88
2023-08-07T04:11:38.823Z,2.80
2023-08-07T04:14:06.282Z,3.10
2023-08-07T04:16:33.209Z,3.13
2023-08-07T04:19:00.273Z,2.60
2023-08-07T04:21:27.199Z,2.53
2023-08-07T04:23:54.775Z,2.53
2023-08-07T04:26:21.727Z,3.50
2023-08-07T04:28:48.865Z,2.55
2023-08-07T04:31:15.784Z,3.10
2023-08-07T04:33:43.067Z,2.67
2023-08-07T04:36:10.027Z,2.67
2023-08-07T04:38:37.453Z,2.60
2023-08-07T04:41:04.653Z,2.70
2023-08-07T04:43:31.601Z,2.70
2023-08-07T04:45:58.457Z,2.65
2023-08-07T04:48:26.752Z,2.22
2023-08-07T04:50:53.729Z,2.42
2023-08-07T04:53:20.660Z,3.35
2023-08-07T04:55:47.875Z,2.42
2023-08-07T04:58:14.895Z,2.58
2023-08-07T05:00:41.952Z,2.67
2023-08-07T05:03:09.082Z,2.30
2023-08-07T05:05:36.053Z,2.28
2023-08-07T05:08:03.297Z,2.50
2023-08-07T05:10:30.436Z,2.60
2023-08-07T05:12:57.353Z,2.42
2023-08-07T05:15:25.246Z,2.47
2023-08-07T05:17:53.037Z,2.22
2023-08-07T05:20:20.040Z,2.55
2023-08-07T05:22:47.118Z,2.20
2023-08-07T05:25:17.036Z,2.45
2023-08-07T05:27:44.979Z,2.08
2023-08-07T05:30:12.727Z,2.17
2023-08-07T05:32:40.131Z,2.60
2023-08-07T05:35:08.310Z,2.25
2023-08-07T05:37:36.117Z,2.33
2023-08-07T05:40:03.747Z,2.00
2023-08-07T05:42:30.663Z,2.08
2023-08-07T05:44:57.537Z,2.22
2023-08-07T05:47:24.495Z,1.90
2023-08-07T05:49:51.523Z,2.45
2023-08-07T05:52:19.568Z,2.40
2023-08-07T05:54:46.818Z,2.03
2023-08-07T05:57:13.825Z,2.38
2023-08-07T05:59:41.427Z,2.40
2023-08-07T06:02:12.125Z,2.40
2023-08-07T06:04:39.467Z,2.58
2023-08-07T06:07:06.853Z,1.60
2023-08-07T06:09:34.549Z,2.33
2023-08-07T06:12:01.502Z,2.03
2023-08-07T06:14:28.545Z,2.25
2023-08-07T06:16:56.127Z,2.08
2023-08-07T06:19:31.391Z,1.95
2023-08-07T06:21:59.866Z,2.13
2023-08-07T06:24:27.262Z,2.28
2023-08-07T06:26:54.357Z,2.15
2023-08-07T06:29:21.536Z,1.83
2023-08-07T06:31:48.703Z,1.85
2023-08-07T06:34:15.802Z,2.00
2023-08-07T06:36:42.887Z,2.13
2023-08-07T06:39:09.795Z,1.88
2023-08-07T06:41:37.444Z,1.85
2023-08-07T06:44:05.150Z,2.40
2023-08-07T06:46:32.171Z,2.10
2023-08-07T06:48:59.157Z,1.98
2023-08-07T06:51:26.218Z,2.00
2023-08-07T06:53:53.107Z,1.70
2023-08-07T06:56:20.160Z,1.83
2023-08-07T06:58:47.171Z,2.28
2023-08-07T07:01:14.245Z,2.38
2023-08-07T07:03:41.364Z,2.10
2023-08-07T07:06:08.449Z,2.20
2023-08-07T07:08:35.387Z,1.90
2023-08-07T07:11:02.476Z,2.47
2023-08-07T07:13:29.437Z,1.80
2023-08-07T07:15:57.006Z,2.42
2023-08-07T07:18:24.115Z,2.58
2023-08-07T07:20:58.946Z,2.28
2023-08-07T07:23:26.162Z,2.42
2023-08-07T07:25:53.058Z,2.35
2023-08-07T07:28:20.017Z,2.25
2023-08-07T07:30:46.995Z,2.38
2023-08-07T07:33:14.970Z,2.10
2023-08-07T07:35:42.145Z,3.03
2023-08-07T07:38:09.407Z,2.60
2023-08-07T07:40:36.365Z,1.77
2023-08-07T07:43:04.488Z,2.03
2023-08-07T07:45:31.618Z,2.13
2023-08-07T07:47:58.628Z,2.17
2023-08-07T07:50:25.601Z,1.70
2023-08-07T07:52:52.572Z,2.20
2023-08-07T07:55:19.559Z,1.88
2023-08-07T07:57:46.688Z,2.50
2023-08-07T08:00:14.715Z,2.05
2023-08-07T08:02:43.751Z,2.15
2023-08-07T08:05:14.107Z,1.98
2023-08-07T08:07:41.526Z,2.00
2023-08-07T08:10:09.601Z,1.58
2023-08-07T08:12:37.516Z,1.98
2023-08-07T08:15:05.827Z,1.85
2023-08-07T08:17:33.302Z,1.60
2023-08-07T08:20:00.530Z,1.60
2023-08-07T08:22:27.577Z,2.58
2023-08-07T08:24:54.501Z,1.70
2023-08-07T08:27:22.407Z,1.70
2023-08-07T08:29:49.337Z,1.65
2023-08-07T08:32:16.271Z,2.10
2023-08-07T08:34:43.239Z,1.60
2023-08-07T08:37:11.719Z,2.45
2023-08-07T08:39:38.643Z,1.80
2023-08-07T08:42:06.720Z,1.90
2023-08-07T08:44:40.081Z,1.90
2023-08-07T08:47:10.459Z,2.03
2023-08-07T08:49:43.875Z,1.80
2023-08-07T08:52:11.780Z,2.13
2023-08-07T08:54:39.438Z,1.83
2023-08-07T08:57:08.073Z,2.25
2023-08-07T08:59:35.581Z,2.10
2023-08-07T09:02:03.201Z,2.33
2023-08-07T09:04:30.298Z,2.40
2023-08-07T09:06:57.528Z,2.13
2023-08-07T09:09:25.555Z,2.13
2023-08-07T09:11:53.554Z,1.98
2023-08-07T09:14:27.235Z,2.40
2023-08-07T09:16:55.781Z,2.45
2023-08-07T09:19:23.028Z,2.22
2023-08-07T09:21:50.006Z,2.40
2023-08-07T09:24:22.237Z,2.28
2023-08-07T09:26:51.886Z,2.67
2023-08-07T09:29:19.580Z,5.88
2023-08-07T09:31:47.315Z,2.55
2023-08-07T09:34:15.019Z,2.50
2023-08-07T09:36:42.498Z,2.53
2023-08-07T09:39:09.542Z,3.35
2023-08-07T09:41:36.725Z,2.45
2023-08-07T09:44:09.601Z,2.63
2023-08-07T09:46:46.749Z,2.30
2023-08-07T09:49:14.768Z,2.50
2023-08-07T09:51:47.102Z,2.42
2023-08-07T09:54:14.682Z,2.85
2023-08-07T09:56:41.884Z,2.70
2023-08-07T09:59:09.596Z,2.50
2023-08-07T10:01:44.513Z,2.45
2023-08-07T10:04:16.722Z,2.63
2023-08-07T10:06:45.090Z,2.65
2023-08-07T10:09:11.949Z,2.78
2023-08-07T10:11:41.341Z,3.05
2023-08-07T10:14:09.425Z,2.45
2023-08-07T10:16:40.818Z,2.83
2023-08-07T10:19:08.619Z,2.85
2023-08-07T10:21:40.987Z,2.40
2023-08-07T10:24:10.233Z,2.72
2023-08-07T10:26:44.221Z,2.22
2023-08-07T10:29:17.186Z,2.67
2023-08-07T10:31:45.884Z,2.38
2023-08-07T10:34:12.876Z,2.17
2023-08-07T10:36:41.929Z,2.47
2023-08-07T10:39:13.243Z,2.33
2023-08-07T10:41:46.932Z,2.00
2023-08-07T10:44:23.743Z,2.45
2023-08-07T10:46:56.305Z,2.05
2023-08-07T10:49:37.465Z,2.17
2023-08-07T10:52:18.368Z,2.10
2023-08-07T10:54:50.902Z,2.10
2023-08-07T10:57:19.881Z,2.20
2023-08-07T11:00:06.414Z,2.10
2023-08-07T11:02:37.459Z,2.17
2023-08-07T11:05:05.837Z,2.28
2023-08-07T11:07:32.936Z,2.22
2023-08-07T11:10:00.453Z,2.10
2023-08-07T11:12:28.704Z,1.60
2023-08-07T11:14:59.436Z,2.20
2023-08-07T11:17:27.410Z,2.08
2023-08-07T11:19:56.219Z,1.92
2023-08-07T11:22:23.616Z,2.80
2023-08-07T11:24:52.569Z,1.75
2023-08-07T11:27:22.051Z,1.95
2023-08-07T11:29:50.287Z,1.90
2023-08-07T11:32:17.407Z,2.20
2023-08-07T11:34:50.843Z,2.08
2023-08-07T11:37:18.587Z,1.77
2023-08-07T11:39:45.886Z,1.73
2023-08-07T11:42:14.162Z,1.73
2023-08-07T11:44:43.223Z,1.98
2023-08-07T11:47:11.686Z,1.70
2023-08-07T11:49:39.194Z,1.83
2023-08-07T11:52:06.929Z,1.70
2023-08-07T11:54:33.875Z,1.60
2023-08-07T11:57:01.305Z,1.75
2023-08-07T11:59:28.519Z,1.67
2023-08-07T12:01:56.126Z,1.67
2023-08-07T12:04:23.432Z,1.50
2023-08-07T12:06:58.589Z,1.60
2023-08-07T12:09:27.515Z,1.50
2023-08-07T12:12:01.107Z,2.10
2023-08-07T12:14:32.367Z,1.52
2023-08-07T12:17:01.800Z,1.50
2023-08-07T12:19:41.414Z,1.67
2023-08-07T12:22:09.570Z,1.50
2023-08-07T12:24:38.039Z,1.70
2023-08-07T12:27:06.190Z,1.60
2023-08-07T12:29:33.129Z,1.60
2023-08-07T12:32:02.173Z,1.33
2023-08-07T12:36:59.569Z,1.73
2023-08-07T12:40:35.431Z,1.88
2023-08-07T12:44:44.416Z,1.95
2023-08-07T12:47:11.480Z,1.70
2023-08-07T12:49:38.444Z,1.60
2023-08-07T12:52:06.074Z,1.83
2023-08-07T12:54:33.142Z,1.40
2023-08-07T12:57:00.298Z,1.52
2023-08-07T12:59:27.371Z,1.23
2023-08-07T13:01:54.546Z,1.80
2023-08-07T13:04:22.205Z,1.60
2023-08-07T13:06:50.881Z,1.70
2023-08-07T13:09:18.090Z,1.80
2023-08-07T13:11:45.368Z,2.05
2023-08-07T13:14:12.571Z,1.45
2023-08-07T13:16:40.126Z,1.95
2023-08-07T13:19:07.138Z,1.65
2023-08-07T13:21:34.240Z,2.00
2023-08-07T13:24:01.283Z,1.50
2023-08-07T13:26:28.347Z,1.63
2023-08-07T13:28:55.252Z,1.70
2023-08-07T13:31:22.275Z,1.60
2023-08-07T13:33:49.249Z,1.70
2023-08-07T13:36:16.233Z,1.58
2023-08-07T13:38:46.793Z,1.70
2023-08-07T13:41:14.678Z,1.38
2023-08-07T13:43:41.536Z,1.67
2023-08-07T13:46:08.673Z,1.58
2023-08-07T13:48:35.732Z,2.10
2023-08-07T13:51:05.910Z,1.63
2023-08-07T13:53:33.086Z,2.05
2023-08-07T13:56:00.152Z,1.60
2023-08-07T13:58:27.320Z,1.75
2023-08-07T14:00:54.345Z,1.70
2023-08-07T14:03:22.572Z,1.83
2023-08-07T14:05:51.221Z,1.90
2023-08-07T14:08:18.346Z,1.50
2023-08-07T14:10:45.362Z,1.73
2023-08-07T14:13:13.102Z,1.65
2023-08-07T14:15:40.688Z,1.98
2023-08-07T14:18:07.838Z,1.58
2023-08-07T14:20:41.751Z,2.25
2023-08-07T14:23:22.112Z,1.55
2023-08-07T14:25:53.946Z,1.80
2023-08-07T14:28:21.213Z,1.73
2023-08-07T14:30:49.090Z,1.75
2023-08-07T14:33:16.380Z,1.95
2023-08-07T14:35:43.287Z,1.80
2023-08-07T14:38:10.291Z,1.75
2023-08-07T14:40:41.882Z,2.10
2023-08-07T14:43:08.832Z,1.77
2023-08-07T14:45:35.784Z,1.60
2023-08-07T14:48:02.863Z,1.88
2023-08-07T14:50:29.972Z,2.72
2023-08-07T14:52:57.051Z,2.55
2023-08-07T14:55:23.961Z,2.60
2023-08-07T14:57:50.953Z,2.28
2023-08-07T15:00:19.435Z,2.25
2023-08-07T15:02:46.442Z,2.30
2023-08-07T15:05:15.446Z,2.42
2023-08-07T15:07:42.455Z,2.20
2023-08-07T15:10:10.234Z,2.97
2023-08-07T15:12:37.208Z,2.85
2023-08-07T15:15:04.769Z,2.42
2023-08-07T15:17:31.905Z,2.78
2023-08-07T15:19:58.876Z,2.10
2023-08-07T15:22:25.841Z,1.98
2023-08-07T15:24:52.859Z,2.40
2023-08-07T15:27:19.912Z,2.10
2023-08-07T15:29:47.781Z,1.83
2023-08-07T15:32:15.055Z,2.00
2023-08-07T15:34:42.066Z,2.40
2023-08-07T15:37:09.337Z,2.20
2023-08-07T15:39:36.282Z,1.85
2023-08-07T15:42:03.327Z,2.20
2023-08-07T15:44:30.293Z,1.63
2023-08-07T15:46:57.484Z,1.92
2023-08-07T15:49:25.250Z,1.95
2023-08-07T15:51:52.604Z,2.47
2023-08-07T15:54:21.456Z,1.73
2023-08-07T15:56:48.628Z,2.30
2023-08-07T15:59:15.540Z,2.40
2023-08-07T16:01:42.598Z,2.20
2023-08-07T16:04:11.106Z,2.28
2023-08-07T16:06:39.314Z,2.25
2023-08-07T16:09:06.233Z,2.65
2023-08-07T16:11:33.293Z,2.30
2023-08-07T16:14:00.162Z,2.65
2023-08-07T16:16:27.839Z,2.47
2023-08-07T16:18:54.908Z,2.83
2023-08-07T16:21:21.921Z,2.30
2023-08-07T16:23:48.856Z,2.10
2023-08-07T16:26:15.848Z,2.58
2023-08-07T16:28:42.705Z,2.20
2023-08-07T16:31:09.656Z,2.40
2023-08-07T16:33:36.782Z,2.25
2023-08-07T16:36:04.036Z,2.50
2023-08-07T16:38:30.911Z,2.40
2023-08-07T16:40:58.124Z,2.08
2023-08-07T16:43:25.092Z,2.33
2023-08-07T16:45:52.111Z,2.63
2023-08-07T16:48:19.150Z,2.75
2023-08-07T16:50:56.824Z,3.08
2023-08-07T16:53:33.516Z,2.10
2023-08-07T16:56:00.481Z,2.40
2023-08-07T16:58:27.528Z,2.17
2023-08-07T17:00:54.477Z,3.05
2023-08-07T17:03:21.963Z,2.30
2023-08-07T17:05:48.954Z,2.47
2023-08-07T17:08:16.432Z,2.53
2023-08-07T17:10:43.345Z,2.33
2023-08-07T17:13:10.337Z,2.15
2023-08-07T17:15:38.039Z,2.78
2023-08-07T17:18:05.546Z,2.28
2023-08-07T17:20:32.472Z,2.65
2023-08-07T17:22:59.543Z,2.50
2023-08-07T17:25:26.581Z,2.40
2023-08-07T17:27:53.612Z,2.45
2023-08-07T17:30:20.693Z,2.13
2023-08-07T17:32:47.737Z,2.08
2023-08-07T17:35:14.767Z,2.30
2023-08-07T17:37:41.823Z,2.50
2023-08-07T17:40:09.461Z,2.75
2023-08-07T17:42:36.425Z,2.90
2023-08-07T17:45:03.719Z,3.28
2023-08-07T17:47:30.842Z,2.78
2023-08-07T17:49:57.802Z,2.60
2023-08-07T17:52:26.523Z,2.45
2023-08-07T17:54:53.432Z,2.40
2023-08-07T17:57:20.380Z,2.60
2023-08-07T17:59:48.112Z,3.13
2023-08-07T18:02:15.139Z,2.45
2023-08-07T18:04:43.412Z,2.33
2023-08-07T18:07:10.553Z,2.65
2023-08-07T18:09:37.478Z,2.38
2023-08-07T18:12:04.852Z,2.85
2023-08-07T18:14:31.779Z,2.40
2023-08-07T18:16:59.096Z,2.95
2023-08-07T18:19:26.419Z,2.85
2023-08-07T18:21:53.386Z,2.58
2023-08-07T18:24:20.346Z,2.90
2023-08-07T18:26:47.412Z,2.78
2023-08-07T18:29:14.539Z,3.05
2023-08-07T18:31:41.521Z,2.67
2023-08-07T18:34:10.236Z,2.75
2023-08-07T18:36:39.714Z,3.22
2023-08-07T18:39:07.206Z,2.80
2023-08-07T18:41:34.178Z,3.15
2023-08-07T18:44:02.797Z,3.13
2023-08-07T18:46:29.855Z,3.00
2023-08-07T18:48:56.779Z,2.70
2023-08-07T18:51:23.833Z,2.20
2023-08-07T18:53:50.727Z,2.42
2023-08-07T18:56:17.653Z,3.20
2023-08-07T18:58:44.933Z,2.40
2023-08-07T19:01:12.763Z,3.40
2023-08-07T19:03:40.136Z,2.88
2023-08-07T19:06:07.827Z,2.63
2023-08-07T19:08:35.620Z,3.05
2023-08-07T19:11:02.720Z,3.33
2023-08-07T19:13:29.823Z,2.90
2023-08-07T19:15:57.965Z,2.80
2023-08-07T19:18:26.101Z,3.20
2023-08-07T19:20:53.609Z,3.00
2023-08-07T19:23:20.554Z,3.30
2023-08-07T19:25:47.814Z,2.92
2023-08-07T19:28:14.752Z,3.00
2023-08-07T19:30:49.263Z,3.60
2023-08-07T19:33:23.145Z,2.72
2023-08-07T19:35:50.079Z,3.50
2023-08-07T19:38:17.087Z,3.10
2023-08-07T19:40:44.216Z,3.53
2023-08-07T19:43:11.204Z,3.70
2023-08-07T19:45:38.124Z,3.88
2023-08-07T19:48:05.451Z,3.42
2023-08-07T19:50:32.439Z,4.10
2023-08-07T19:52:59.969Z,4.15
2023-08-07T19:55:27.046Z,3.30
2023-08-07T19:57:54.065Z,3.55
2023-08-07T20:00:21.177Z,3.15
2023-08-07T20:02:48.327Z,4.00
2023-08-07T20:05:15.577Z,3.20
2023-08-07T20:07:42.687Z,2.83
2023-08-07T20:10:10.896Z,3.08
2023-08-07T20:12:38.954Z,3.10
2023-08-07T20:15:06.573Z,3.38
2023-08-07T20:17:33.941Z,3.90
2023-08-07T20:20:00.924Z,3.00
2023-08-07T20:22:27.888Z,2.90
2023-08-07T20:24:54.832Z,2.90
2023-08-07T20:27:21.870Z,2.75
2023-08-07T20:29:48.815Z,2.80
2023-08-07T20:32:15.898Z,2.03
2023-08-07T20:34:42.849Z,2.30
2023-08-07T20:37:09.817Z,2.72
2023-08-07T20:39:36.942Z,2.85
2023-08-07T20:42:04.151Z,2.85
2023-08-07T20:44:31.047Z,2.42
2023-08-07T20:46:58.153Z,2.75
2023-08-07T20:49:25.040Z,3.17
2023-08-07T20:51:52.041Z,2.85
2023-08-07T20:54:19.012Z,2.80
2023-08-07T20:56:47.777Z,2.50
2023-08-07T20:59:14.718Z,3.25
2023-08-07T21:01:44.631Z,2.78
2023-08-07T21:04:12.181Z,2.30
2023-08-07T21:06:39.094Z,2.83
2023-08-07T21:09:06.311Z,2.83
2023-08-07T21:11:33.569Z,3.10
2023-08-07T21:14:00.731Z,2.75
2023-08-07T21:16:27.671Z,3.50
2023-08-07T21:18:54.663Z,3.05
2023-08-07T21:21:21.647Z,3.05
2023-08-07T21:23:48.677Z,3.97
2023-08-07T21:26:15.649Z,3.17
2023-08-07T21:28:42.610Z,3.15
2023-08-07T21:31:09.587Z,2.80
2023-08-07T21:33:36.638Z,3.00
2023-08-07T21:36:04.534Z,2.78
2023-08-07T21:38:31.514Z,2.88
2023-08-07T21:40:58.398Z,2.55
2023-08-07T21:43:26.573Z,2.90
2023-08-07T21:45:53.671Z,2.80
2023-08-07T21:48:20.749Z,2.90
2023-08-07T21:50:47.662Z,3.30
2023-08-07T21:53:14.664Z,2.95
2023-08-07T21:55:41.594Z,2.80
2023-08-07T21:58:08.603Z,3.40
2023-08-07T22:00:35.673Z,3.20
2023-08-07T22:03:02.679Z,4.32
2023-08-07T22:05:29.637Z,3.17
2023-08-07T22:07:56.675Z,3.75
2023-08-07T22:10:23.758Z,3.15
2023-08-07T22:12:50.886Z,3.28
2023-08-07T22:15:17.912Z,3.60
2023-08-07T22:17:45.055Z,4.07
2023-08-07T22:20:13.664Z,3.88
2023-08-07T22:22:42.436Z,4.60
2023-08-07T22:25:09.937Z,3.75
2023-08-07T22:27:36.994Z,4.53
2023-08-07T22:30:06.462Z,3.67
2023-08-07T22:32:33.682Z,3.50
2023-08-07T22:35:00.642Z,3.90
2023-08-07T22:37:27.685Z,3.80
2023-08-07T22:39:54.542Z,3.78
2023-08-07T22:42:21.524Z,4.03
2023-08-07T22:44:48.868Z,4.05
2023-08-07T22:47:15.805Z,4.07
2023-08-07T22:49:42.754Z,3.85
2023-08-07T22:52:09.713Z,4.07
2023-08-07T22:54:36.606Z,3.63
2023-08-07T22:57:03.874Z,4.22
2023-08-07T22:59:30.834Z,3.92
2023-08-07T23:01:58.201Z,4.60
2023-08-07T23:04:25.274Z,4.55
2023-08-07T23:06:52.230Z,4.95
2023-08-07T23:09:20.396Z,4.57
2023-08-07T23:11:47.531Z,4.85
2023-08-07T23:14:14.460Z,4.70
2023-08-07T23:16:41.505Z,5.15
2023-08-07T23:19:08.731Z,5.15
2023-08-07T23:21:35.687Z,5.13
2023-08-07T23:24:02.656Z,5.50
2023-08-07T23:26:31.939Z,5.07
2023-08-07T23:28:58.962Z,5.35
2023-08-07T23:31:26.258Z,6.28
2023-08-07T23:33:53.239Z,5.18
2023-08-07T23:36:20.244Z,5.28
2023-08-07T23:38:47.401Z,5.80
2023-08-07T23:41:14.353Z,5.22
2023-08-07T23:43:41.406Z,6.85
2023-08-07T23:46:08.451Z,5.70
2023-08-07T23:48:35.752Z,5.88
2023-08-07T23:51:03.339Z,5.80
2023-08-07T23:53:30.318Z,5.43
2023-08-07T23:55:57.414Z,7.15
2023-08-07T23:58:24.399Z,5.80
